createdAt,value
2019-04-30T00:03:28.177Z,25.40
2019-04-30T00:08:35.410Z,30.03
2019-04-30T00:13:35.860Z,26.83
2019-04-30T00:18:39.640Z,28.57
2019-04-30T00:23:42.365Z,30.60
2019-04-30T00:28:47.665Z,26.03
2019-04-30T00:33:52.607Z,30.73
2019-04-30T00:38:52.666Z,32.90
2019-04-30T00:43:55.229Z,31.70
2019-04-30T00:49:08.842Z,29.50
2019-04-30T00:54:01.591Z,31.57
2019-04-30T00:59:07.164Z,31.93
2019-04-30T01:04:09.958Z,36.88
2019-04-30T01:09:12.574Z,40.00
2019-04-30T01:14:15.220Z,41.17
2019-04-30T01:19:29.506Z,36.10
2019-04-30T01:24:23.551Z,39.46
2019-04-30T01:29:31.119Z,36.83
2019-04-30T01:34:30.978Z,42.37
2019-04-30T01:39:33.276Z,35.10
2019-04-30T01:44:35.561Z,40.73
2019-04-30T01:49:42.665Z,38.57
2019-04-30T01:54:41.872Z,39.03
2019-04-30T02:00:02.532Z,36.73
2019-04-30T02:05:06.065Z,39.73
2019-04-30T02:10:08.769Z,38.10
2019-04-30T02:15:11.227Z,39.00
2019-04-30T02:20:13.687Z,40.87
2019-04-30T02:25:15.987Z,38.53
2019-04-30T02:30:20.822Z,42.20
2019-04-30T02:35:30.015Z,38.13
2019-04-30T02:40:33.827Z,39.83
2019-04-30T02:45:36.668Z,38.70
2019-04-30T02:50:40.182Z,37.20
2019-04-30T02:55:43.463Z,38.47
2019-04-30T03:00:46.135Z,39.77
2019-04-30T03:05:49.741Z,40.23
2019-04-30T03:10:54.791Z,40.00
2019-04-30T03:15:59.243Z,39.83
2019-04-30T03:21:09.775Z,43.70
2019-04-30T03:26:12.986Z,45.57
2019-04-30T03:31:15.518Z,51.43
2019-04-30T03:36:21.757Z,47.50
2019-04-30T03:41:23.522Z,51.40
2019-04-30T03:46:25.809Z,50.90
2019-04-30T03:51:30.255Z,52.37
2019-04-30T03:56:32.077Z,53.23
2019-04-30T04:01:49.766Z,49.23
2019-04-30T04:06:56.795Z,52.00
2019-04-30T04:12:00.866Z,51.20
2019-04-30T04:17:03.234Z,55.40
2019-04-30T04:22:05.538Z,56.13
2019-04-30T04:27:09.661Z,60.27
2019-04-30T04:32:12.146Z,64.10
2019-04-30T04:37:14.517Z,54.67
2019-04-30T04:42:19.110Z,49.90
2019-04-30T04:47:20.826Z,50.37
2019-04-30T04:52:23.111Z,56.17
2019-04-30T04:57:25.395Z,52.37
2019-04-30T05:02:44.927Z,57.17
2019-04-30T05:07:48.607Z,52.10
2019-04-30T05:12:51.154Z,51.93
2019-04-30T05:17:53.561Z,49.97
2019-04-30T05:22:55.857Z,51.77
2019-04-30T05:27:58.728Z,50.77
2019-04-30T05:33:01.150Z,57.27
2019-04-30T05:38:03.711Z,53.47
2019-04-30T05:43:06.023Z,55.80
2019-04-30T05:48:08.861Z,49.23
2019-04-30T05:53:11.407Z,54.70
2019-04-30T05:58:13.789Z,49.90
2019-04-30T06:03:27.743Z,47.73
2019-04-30T06:08:21.797Z,48.70
2019-04-30T06:13:25.796Z,44.10
2019-04-30T06:18:28.692Z,44.97
2019-04-30T06:23:31.156Z,51.03
2019-04-30T06:28:33.530Z,44.43
2019-04-30T06:33:35.864Z,44.25
2019-04-30T06:38:38.662Z,46.90
2019-04-30T06:43:41.273Z,48.37
2019-04-30T06:48:46.427Z,47.07
2019-04-30T06:53:49.569Z,43.70
2019-04-30T06:58:52.695Z,41.78
2019-04-30T07:03:57.004Z,44.03
2019-04-30T07:09:17.559Z,43.27
2019-04-30T07:14:19.837Z,43.97
2019-04-30T07:19:31.738Z,40.63
2019-04-30T07:24:26.402Z,39.50
2019-04-30T07:29:29.541Z,45.60
2019-04-30T07:34:36.756Z,41.33
2019-04-30T07:39:36.107Z,41.37
2019-04-30T07:44:39.450Z,42.00
2019-04-30T07:49:49.894Z,42.53
2019-04-30T07:54:45.976Z,43.13
2019-04-30T07:59:49.938Z,33.77
2019-04-30T08:04:54.084Z,36.43
2019-04-30T08:09:58.854Z,37.87
2019-04-30T08:15:00.752Z,36.83
2019-04-30T08:20:03.701Z,36.77
2019-04-30T08:25:06.166Z,35.70
2019-04-30T08:30:20.733Z,38.40
2019-04-30T08:35:12.822Z,38.20
2019-04-30T08:40:20.862Z,41.03
2019-04-30T08:45:23.140Z,40.73
2019-04-30T08:50:25.506Z,40.97
2019-04-30T08:55:30.316Z,43.10
2019-04-30T09:00:32.001Z,37.20
2019-04-30T09:05:35.948Z,36.87
2019-04-30T09:10:39.335Z,43.27
2019-04-30T09:15:42.009Z,35.43
2019-04-30T09:20:44.300Z,35.57
2019-04-30T09:25:46.595Z,33.40
2019-04-30T09:30:48.887Z,36.77
2019-04-30T09:35:51.161Z,37.90
2019-04-30T09:40:53.516Z,34.67
2019-04-30T09:45:55.784Z,38.92
2019-04-30T09:51:00.357Z,31.67
2019-04-30T09:56:02.271Z,36.70
2019-04-30T10:01:04.713Z,38.35
2019-04-30T10:06:08.799Z,36.23
2019-04-30T10:11:28.418Z,29.12
2019-04-30T10:16:33.010Z,32.50
2019-04-30T10:21:35.282Z,25.52
2019-04-30T10:26:37.911Z,27.75
2019-04-30T10:31:40.469Z,26.37
2019-04-30T10:36:42.794Z,29.87
2019-04-30T10:41:45.451Z,27.55
2019-04-30T10:46:47.860Z,28.47
2019-04-30T10:51:50.291Z,25.80
2019-04-30T10:56:52.572Z,23.80
2019-04-30T11:01:54.920Z,27.40
2019-04-30T11:07:00.007Z,22.54
2019-04-30T11:12:03.035Z,23.92
2019-04-30T11:17:05.674Z,20.75
2019-04-30T11:22:08.323Z,24.98
2019-04-30T11:27:11.736Z,21.40
2019-04-30T11:32:16.307Z,22.62
2019-04-30T11:37:18.763Z,24.57
2019-04-30T11:42:21.056Z,22.20
2019-04-30T11:47:24.003Z,30.60
2019-04-30T11:52:26.295Z,21.87
2019-04-30T11:57:29.804Z,22.05
2019-04-30T12:02:36.727Z,22.50
2019-04-30T12:07:48.324Z,24.10
2019-04-30T12:12:50.757Z,18.25
2019-04-30T12:17:53.063Z,22.48
2019-04-30T12:22:55.316Z,23.35
2019-04-30T12:27:59.537Z,20.27
2019-04-30T12:33:01.712Z,20.40
2019-04-30T12:38:04.079Z,20.52
2019-04-30T12:43:06.516Z,22.73
2019-04-30T12:48:13.475Z,23.40
2019-04-30T12:53:20.205Z,23.73
2019-04-30T13:03:24.126Z,22.58
2019-04-30T13:08:26.952Z,19.00
2019-04-30T13:13:32.221Z,17.87
2019-04-30T13:18:33.636Z,22.13
2019-04-30T13:23:35.936Z,19.82
2019-04-30T13:28:56.455Z,20.48
2019-04-30T13:34:18.511Z,20.97
2019-04-30T13:39:22.351Z,24.12
2019-04-30T13:44:26.352Z,23.32
2019-04-30T13:49:30.227Z,22.27
2019-04-30T13:54:32.770Z,24.83
2019-04-30T13:59:35.054Z,19.10
2019-04-30T14:04:41.876Z,20.97
2019-04-30T14:09:44.501Z,20.85
2019-04-30T14:14:46.900Z,18.75
2019-04-30T14:19:49.186Z,23.00
2019-04-30T14:24:53.103Z,16.05
2019-04-30T14:29:55.422Z,18.30
2019-04-30T14:34:58.833Z,18.65
2019-04-30T14:40:01.989Z,20.17
2019-04-30T14:45:11.450Z,16.55
2019-04-30T14:50:15.882Z,18.85
2019-04-30T14:55:22.831Z,15.98
2019-04-30T15:00:31.924Z,19.00
2019-04-30T15:05:40.583Z,20.00
2019-04-30T15:10:37.782Z,19.17
2019-04-30T15:15:40.066Z,18.30
2019-04-30T15:20:42.414Z,16.15
2019-04-30T15:25:44.716Z,14.78
2019-04-30T15:30:48.701Z,14.78
2019-04-30T15:35:52.918Z,15.78
2019-04-30T15:40:55.272Z,14.95
2019-04-30T15:45:57.647Z,16.23
2019-04-30T15:51:00.087Z,13.88
2019-04-30T15:56:02.378Z,14.23
2019-04-30T16:01:06.312Z,15.93
2019-04-30T16:06:10.408Z,13.87
2019-04-30T16:11:30.711Z,13.58
2019-04-30T16:16:35.356Z,17.17
2019-04-30T16:21:37.690Z,13.62
2019-04-30T16:26:49.046Z,14.15
2019-04-30T16:31:44.137Z,15.40
2019-04-30T16:36:46.401Z,16.12
2019-04-30T16:41:49.643Z,13.45
2019-04-30T16:46:52.324Z,12.30
2019-04-30T16:51:54.670Z,13.78
2019-04-30T16:57:04.216Z,13.60
2019-04-30T17:02:01.257Z,12.18
2019-04-30T17:07:18.773Z,12.23
2019-04-30T17:12:22.805Z,11.75
2019-04-30T17:17:25.092Z,13.75
2019-04-30T17:22:29.234Z,14.95
2019-04-30T17:27:31.575Z,11.75
2019-04-30T17:32:34.112Z,13.28
2019-04-30T17:37:36.581Z,10.40
2019-04-30T17:42:38.951Z,11.55
2019-04-30T17:47:41.222Z,9.50
2019-04-30T17:52:43.496Z,9.95
2019-04-30T17:57:45.813Z,9.08
2019-04-30T18:02:48.177Z,12.68
2019-04-30T18:07:50.559Z,15.78
2019-04-30T18:12:53.316Z,14.38
2019-04-30T18:17:58.145Z,10.63
2019-04-30T18:23:02.767Z,11.33
2019-04-30T18:28:09.021Z,13.25
2019-04-30T18:33:12.105Z,8.37
2019-04-30T18:38:14.440Z,14.83
2019-04-30T18:43:20.394Z,11.85
2019-04-30T18:48:21.771Z,11.63
2019-04-30T18:53:25.754Z,12.18
2019-04-30T18:58:39.297Z,10.05
2019-04-30T19:03:32.555Z,11.10
2019-04-30T19:08:52.061Z,16.20
2019-04-30T19:13:59.283Z,11.05
2019-04-30T19:19:16.057Z,10.15
2019-04-30T19:24:19.688Z,10.33
2019-04-30T19:29:22.802Z,13.23
2019-04-30T19:34:28.654Z,13.17
2019-04-30T19:39:32.554Z,10.60
2019-04-30T19:44:35.114Z,10.30
2019-04-30T19:49:38.966Z,11.00
2019-04-30T19:54:42.088Z,10.03
2019-04-30T19:59:44.466Z,11.70
2019-04-30T20:04:46.947Z,16.30
2019-04-30T20:10:00.172Z,13.00
2019-04-30T20:14:53.590Z,18.77
2019-04-30T20:19:56.019Z,24.57
2019-04-30T20:24:59.274Z,22.02
2019-04-30T20:30:01.895Z,19.00
2019-04-30T20:35:06.994Z,17.63
2019-04-30T20:40:11.031Z,18.57
2019-04-30T20:45:13.614Z,19.20
2019-04-30T20:50:16.246Z,18.90
2019-04-30T20:55:18.600Z,17.73
2019-04-30T21:00:20.987Z,17.20
2019-04-30T21:05:23.386Z,21.10
2019-04-30T21:10:25.818Z,17.47
2019-04-30T21:15:29.755Z,22.80
2019-04-30T21:20:32.370Z,20.17
2019-04-30T21:25:34.687Z,21.77
2019-04-30T21:30:37.101Z,20.30
2019-04-30T21:35:58.623Z,15.87
2019-04-30T21:41:01.299Z,24.27
2019-04-30T21:46:03.849Z,21.73
2019-04-30T21:51:06.197Z,25.30
2019-04-30T21:56:08.562Z,25.07
2019-04-30T22:01:13.839Z,25.47
2019-04-30T22:06:16.302Z,21.80
2019-04-30T22:11:19.771Z,19.13
2019-04-30T22:16:22.326Z,21.23
2019-04-30T22:21:24.626Z,22.30
2019-04-30T22:26:26.902Z,26.20
2019-04-30T22:31:29.727Z,26.53
2019-04-30T22:36:33.794Z,22.23
2019-04-30T22:41:36.211Z,22.30
2019-04-30T22:46:39.403Z,28.03
2019-04-30T22:51:41.893Z,24.37
2019-04-30T22:56:44.184Z,23.00
2019-04-30T23:01:57.436Z,22.30
2019-04-30T23:06:59.714Z,22.40
2019-04-30T23:12:02.788Z,21.33
2019-04-30T23:17:05.344Z,24.77
2019-04-30T23:22:07.659Z,21.80
2019-04-30T23:27:09.953Z,22.13
2019-04-30T23:32:13.662Z,22.60
2019-04-30T23:37:16.105Z,21.43
2019-04-30T23:42:18.439Z,19.42
2019-04-30T23:47:20.786Z,21.00
2019-04-30T23:52:23.073Z,18.93
2019-04-30T23:57:25.389Z,19.07
